Hinckley, Ohio
Current Conditions -  °F | °C
As of 7:51 PM on Saturday 22 Nov 2014 (Local Time) from KCLE Reporting Station
Overcast Overcast  
Wind Chill: 40°   Ceiling: 4500
Heat Index: 46°   Visibility: 10mi
Dew Point: 35°   Wind: 15mph
Humidity: 66%   Direction: 190°S
Pressure: 30.05"   Gusts: NA
Location:  41.24°N, 81.75°W
Report Text: KCLE 230051Z 19013KT 10SM BKN045 OVC055 08/02 A3005 RMK AO2 SLP182 T00780017 $
Loading
Personal Weather Stations






























Interactive Weather Map New forecast layout! Learn more

10-Day Weather Forecast

Advertisements
Track Severe Weather on mobile